Soldotna, AK (99669)

8:31 PM AKDT on September 20, 2014 (GMT -0800)
KAKSOLDO6 | Change Station
CLOSE
Current Station
Personal Weather Station
Location: Funny River, AK
Elevation: 208 ft
Nearby Weather Stations

Elev 208 ft 60.51 °N, 150.80 °W | Updated 54 seconds ago

Overcast
Overcast
51.4 °F
Feels Like 51.4 °F
N
2.0
Wind Variable Wind from SSE
Gusts 2.0 mph

Today
High -- | Low -- °F
--% Chance of Precip.
Yesterday
High -- | Low -- °F
Precip. -- in
7:44 AM 8:09 PM
Waning Crescent, 9% visible
Pressure 29.62 in
Visibility 10.0 miles
Clouds Mostly Cloudy 5000 ft
Overcast 6500 ft
Dew Point 48 °F
Humidity 88%
Rainfall 0.06 in
Snow Depth 23 in , 4 in , 0 in
UV 0 out of 12
Pollen Not available.
Air Quality Not available.
Flu Activity Not available.
METAR PASX 210416Z AUTO 22005KT 10SM BKN050 OVC065 11/08 A2962 RMK AO1

More Conditions Fewer Conditions

Pressure 29.62 in
Visibility 10.0 miles
Clouds Mostly Cloudy 5000 ft
Overcast 6500 ft
Dew Point 48 °F
Humidity 88%
Rainfall 0.06 in
Snow Depth 23 in , 4 in , 0 in
UV 0 out of 12
Pollen Not available.
Air Quality Not available.
Flu Activity Not available.
METAR PASX 210416Z AUTO 22005KT 10SM BKN050 OVC065 11/08 A2962 RMK AO1

More Conditions Fewer Conditions

10-Day Weather Forecast

Almanac

Astronomy

Sep. 20, 2014 Rise Set
Actual Time 7:44 AM AKDT 8:09 PM AKDT
Civil Twilight 7:01 AM AKDT 8:51 PM AKDT
Nautical Twilight 6:10 AM AKDT 9:43 PM AKDT
Astronomical Twilight 5:13 AM AKDT 10:39 PM AKDT
Moon 3:52 AM AKDT (9/20) 6:50 PM AKDT (9/20)
Length of Visible Light 13h 50m
Length of Day
12h 25m
Tomorrow will be 5m 30s shorter.
Waning Crescent, 9% of the Moon is Illuminated
Sep 21
Waning Crescent
Sep 24
New
Oct 1
First Quarter
Oct 8
Full
Oct 15
Last Quarter

Today's Extremes

State Highs State Lows

Community

WunderPhotos

Upload Photos

1,755,081 photos uploaded!

Nearby

Snow Depth

Station Depth Elevation
Imnaviat Creek 23 in 3050 ft
Atigun Pass 4 in 4800 ft
Long Lake 0 in 820 ft
Granite Creek 0 in 1240 ft
Nuka Glacier 79 in 1250 ft

Earthquake Activity

City Distance Mag. Time & Date
No recent earthquake activity has been reported nearby.
Minimum magnitude displayed is 2.5.

Coastal Water Temperatures

Place Temperature
No Stations Reporting

Nearby Weather Stations